Time;durP1;ratioP1;P1;durP2;ratioP2;P2;SDS_P1;SDS_P2;PMS_P1;PMS_P2;Temp;Humidity;BMP_temperature;BMP_pressure;BME280_temperature;BME280_humidity;BME280_pressure;Samples;Min_cycle;Max_cycle;Signal;HPM_P1;HPM_P2
2023/10/24 00:00:05;;;;;;;2.75;1.50;;;;;;;13.06;100.00;98549.06;332740;28;4850;-80
2023/10/24 00:00:17;;;;;;;2.25;1.50;;;;;;;13.09;100.00;98548.84;337654;28;19837;-80
2023/10/24 00:00:30;;;;;;;2.28;1.60;;;;;;;13.14;100.00;98549.44;340396;28;4621;-80
2023/10/24 00:00:42;;;;;;;2.15;1.67;;;;;;;13.16;100.00;98552.78;335898;28;18205;-80
2023/10/24 00:00:54;;;;;;;2.72;1.90;;;;;;;13.18;100.00;98553.53;338858;28;5569;-80
2023/10/24 00:01:06;;;;;;;2.78;1.88;;;;;;;13.11;100.00;98548.78;337987;28;5011;-80
2023/10/24 00:01:18;;;;;;;2.95;1.88;;;;;;;13.03;100.00;98564.06;335155;28;17476;-80
2023/10/24 00:01:30;;;;;;;2.72;1.80;;;;;;;12.86;100.00;98555.47;336988;28;4489;-80
2023/10/24 00:01:42;;;;;;;3.30;1.92;;;;;;;12.75;100.00;98556.09;333523;28;16605;-80
2023/10/24 00:01:54;;;;;;;3.40;1.88;;;;;;;12.72;100.00;98556.28;337394;28;5344;-80
2023/10/24 00:02:07;;;;;;;2.95;1.85;;;;;;;12.71;100.00;98554.59;337420;28;4538;-80
2023/10/24 00:02:19;;;;;;;2.70;1.70;;;;;;;12.69;100.00;98556.44;336749;28;18104;-80
2023/10/24 00:02:31;;;;;;;2.70;1.80;;;;;;;12.73;100.00;98552.72;339596;28;4524;-80
2023/10/24 00:02:43;;;;;;;2.42;1.80;;;;;;;12.83;100.00;98554.81;336568;28;17969;-80
2023/10/24 00:02:55;;;;;;;2.67;1.90;;;;;;;12.87;100.00;98554.53;335090;28;4469;-80
2023/10/24 00:03:07;;;;;;;2.75;2.03;;;;;;;12.90;100.00;98554.34;336678;28;17660;-80
2023/10/24 00:03:19;;;;;;;2.88;2.08;;;;;;;12.95;100.00;98551.47;340387;28;4561;-80
2023/10/24 00:03:31;;;;;;;2.97;2.15;;;;;;;12.95;100.00;98551.47;343158;28;4688;-80
2023/10/24 00:03:43;;;;;;;4.47;2.13;;;;;;;12.96;100.00;98553.16;338616;28;18200;-80
2023/10/24 00:03:55;;;;;;;8.20;2.40;;;;;;;12.98;100.00;98546.06;341582;28;4512;-80
2023/10/24 00:04:07;;;;;;;8.98;2.42;;;;;;;12.99;100.00;98548.56;338375;28;15162;-79
2023/10/24 00:04:20;;;;;;;6.00;2.17;;;;;;;13.04;100.00;98543.09;339006;28;4683;-79
2023/10/24 00:04:32;;;;;;;2.72;1.70;;;;;;;13.07;100.00;98540.28;336144;28;5345;-79
2023/10/24 00:04:44;;;;;;;1.92;1.67;;;;;;;13.09;100.00;98543.63;338674;28;5485;-80
2023/10/24 00:04:56;;;;;;;2.28;1.80;;;;;;;13.13;100.00;98542.50;337873;28;4868;-80
2023/10/24 00:05:08;;;;;;;2.30;1.80;;;;;;;13.15;100.00;98538.03;334985;28;18933;-80
2023/10/24 00:05:20;;;;;;;2.33;1.75;;;;;;;13.15;100.00;98548.47;338658;28;4547;-80
2023/10/24 00:05:32;;;;;;;2.38;1.80;;;;;;;13.14;100.00;98536.38;337099;28;13158;-80
2023/10/24 00:05:44;;;;;;;2.47;1.80;;;;;;;13.17;100.00;98540.56;335084;28;18783;-80
2023/10/24 00:05:56;;;;;;;2.42;1.88;;;;;;;13.16;100.00;98531.91;333747;28;4497;-80
2023/10/24 00:06:08;;;;;;;3.55;1.83;;;;;;;13.17;100.00;98536.19;332473;28;18195;-80
2023/10/24 00:06:20;;;;;;;3.10;1.60;;;;;;;13.15;100.00;98537.22;336616;28;5443;-80
2023/10/24 00:06:32;;;;;;;1.65;1.40;;;;;;;13.15;100.00;98538.03;335014;29;5291;-80
2023/10/24 00:06:44;;;;;;;2.45;1.60;;;;;;;13.16;100.00;98533.69;332724;28;17264;-80
2023/10/24 00:06:56;;;;;;;2.65;1.70;;;;;;;13.16;100.00;98534.50;336994;28;4505;-80
2023/10/24 00:07:08;;;;;;;2.78;1.90;;;;;;;13.20;100.00;98532.56;333624;29;13734;-80
2023/10/24 00:07:20;;;;;;;3.05;2.00;;;;;;;13.19;100.00;98542.13;334220;28;18560;-80
2023/10/24 00:07:32;;;;;;;2.85;1.92;;;;;;;13.22;100.00;98535.06;337601;28;4562;-80
2023/10/24 00:07:46;;;;;;;2.53;1.83;;;;;;;13.26;100.00;98533.94;334402;28;17963;-80
2023/10/24 00:07:58;;;;;;;2.75;1.80;;;;;;;13.29;100.00;98531.16;334519;28;12277;-80
2023/10/24 00:08:10;;;;;;;2.92;1.90;;;;;;;13.33;100.00;98532.66;337082;28;4541;-80
2023/10/24 00:08:22;;;;;;;3.03;1.90;;;;;;;13.30;100.00;98541.53;337884;28;5340;-80
2023/10/24 00:08:34;;;;;;;3.15;1.92;;;;;;;13.29;100.00;98552.03;336017;28;18229;-80
2023/10/24 00:08:46;;;;;;;3.58;1.92;;;;;;;13.26;100.00;98554.81;333702;28;5800;-80
2023/10/24 00:08:58;;;;;;;2.63;1.77;;;;;;;13.32;100.00;98559.69;337007;28;4651;-80
2023/10/24 00:09:10;;;;;;;2.85;1.70;;;;;;;13.25;100.00;98566.19;333021;28;17897;-80
2023/10/24 00:09:22;;;;;;;3.75;1.77;;;;;;;13.19;100.00;98565.63;338777;28;4989;-80
2023/10/24 00:09:34;;;;;;;4.10;1.90;;;;;;;13.19;100.00;98575.22;334821;28;12426;-80
2023/10/24 00:09:46;;;;;;;4.53;1.90;;;;;;;13.13;100.00;98576.44;338155;28;4545;-80
2023/10/24 00:09:58;;;;;;;4.25;2.00;;;;;;;13.12;100.00;98572.16;337896;28;4595;-80
2023/10/24 00:10:10;;;;;;;4.05;2.05;;;;;;;13.09;100.00;98569.72;330736;28;17962;-80
2023/10/24 00:10:23;;;;;;;2.97;2.03;;;;;;;13.02;100.00;98570.19;338929;28;4709;-80
2023/10/24 00:10:36;;;;;;;2.80;1.80;;;;;;;12.90;100.00;98569.16;336653;28;18062;-80
2023/10/24 00:10:48;;;;;;;2.72;1.73;;;;;;;12.88;100.00;98565.81;339652;28;4553;-80
2023/10/24 00:11:01;;;;;;;2.47;1.80;;;;;;;12.90;100.00;98559.56;336313;28;17754;-80
2023/10/24 00:11:13;;;;;;;2.47;2.15;;;;;;;12.90;100.00;98570.00;337453;28;4611;-80
2023/10/24 00:11:25;;;;;;;4.40;2.65;;;;;;;12.93;100.00;98563.75;332154;28;17745;-80
2023/10/24 00:11:37;;;;;;;5.22;3.10;;;;;;;12.92;100.00;98562.09;335911;28;4662;-80
2023/10/24 00:11:49;;;;;;;5.00;3.53;;;;;;;12.92;100.00;98564.69;329622;28;4615;-80
2023/10/24 00:12:01;;;;;;;4.07;3.38;;;;;;;12.92;100.00;98562.09;337851;28;4508;-80
2023/10/24 00:12:13;;;;;;;3.80;3.13;;;;;;;12.95;100.00;98559.28;337921;28;6126;-80
2023/10/24 00:12:25;;;;;;;3.22;2.70;;;;;;;12.92;100.00;98562.09;335875;28;19049;-79
2023/10/24 00:12:37;;;;;;;3.25;2.65;;;;;;;12.97;100.00;98560.03;338956;28;4676;-79
2023/10/24 00:12:49;;;;;;;8.18;2.92;;;;;;;12.99;100.00;98558.16;339361;28;12787;-80
2023/10/24 00:13:02;;;;;;;8.35;2.90;;;;;;;13.00;100.00;98554.66;330964;28;18754;-80
2023/10/24 00:13:14;;;;;;;6.88;2.75;;;;;;;12.99;100.00;98556.38;338756;28;4551;-80
2023/10/24 00:13:26;;;;;;;4.05;2.50;;;;;;;12.98;100.00;98556.50;335858;28;18379;-80
2023/10/24 00:13:38;;;;;;;2.92;2.35;;;;;;;12.97;100.00;98552.19;341118;28;4476;-80
2023/10/24 00:13:50;;;;;;;4.53;2.40;;;;;;;13.01;100.00;98553.69;337498;28;16414;-80
2023/10/24 00:14:02;;;;;;;4.72;2.50;;;;;;;13.03;100.00;98549.22;339136;28;5254;-80
2023/10/24 00:14:14;;;;;;;3.08;2.33;;;;;;;13.02;100.00;98547.56;339062;28;4741;-80
2023/10/24 00:14:27;;;;;;;2.67;2.08;;;;;;;13.03;100.00;98543.19;331826;28;18352;-80
2023/10/24 00:14:39;;;;;;;3.03;2.17;;;;;;;12.98;100.00;98544.28;339211;28;4533;-80
2023/10/24 00:14:51;;;;;;;5.07;2.40;;;;;;;12.87;100.00;98543.25;335230;28;18932;-80
2023/10/24 00:15:04;;;;;;;5.13;2.30;;;;;;;12.79;100.00;98552.34;337650;28;4799;-80
2023/10/24 00:15:16;;;;;;;4.90;2.30;;;;;;;12.75;100.00;98550.88;335641;28;9775;-79
2023/10/24 00:15:28;;;;;;;3.17;2.30;;;;;;;12.76;100.00;98551.72;337962;28;5640;-79
2023/10/24 00:15:40;;;;;;;3.08;2.25;;;;;;;12.81;100.00;98554.06;336380;29;10555;-80
2023/10/24 00:15:52;;;;;;;2.80;2.05;;;;;;;12.89;100.00;98551.81;334886;28;13424;-80
2023/10/24 00:16:04;;;;;;;3.40;2.10;;;;;;;12.84;100.00;98554.72;332869;28;4767;-80
2023/10/24 00:16:16;;;;;;;4.13;2.15;;;;;;;12.84;100.00;98556.47;335090;28;11981;-80
2023/10/24 00:16:28;;;;;;;4.15;2.35;;;;;;;12.83;100.00;98553.03;337393;28;4557;-80
2023/10/24 00:16:40;;;;;;;4.43;2.20;;;;;;;12.83;100.00;98552.19;336355;28;5462;-80
2023/10/24 00:16:53;;;;;;;4.20;2.15;;;;;;;12.84;100.00;98548.63;334742;28;18382;-80
2023/10/24 00:17:05;;;;;;;4.00;2.00;;;;;;;12.80;100.00;98563.66;337552;28;4571;-79
2023/10/24 00:17:17;;;;;;;2.97;1.85;;;;;;;12.81;100.00;98554.06;335762;28;19185;-79
2023/10/24 00:17:29;;;;;;;2.50;1.70;;;;;;;12.80;100.00;98553.22;337798;28;4503;-79
2023/10/24 00:17:41;;;;;;;2.72;1.85;;;;;;;12.79;100.00;98546.31;334375;28;4613;-80
2023/10/24 00:17:53;;;;;;;3.50;2.10;;;;;;;12.71;100.00;98549.38;333929;28;18022;-80
2023/10/24 00:18:05;;;;;;;3.15;2.00;;;;;;;12.74;100.00;98543.16;336933;28;5565;-80
2023/10/24 00:18:18;;;;;;;3.10;1.80;;;;;;;12.78;100.00;98545.47;333668;28;18568;-79
2023/10/24 00:18:30;;;;;;;3.35;1.75;;;;;;;12.81;100.00;98543.63;334834;28;4561;-80
2023/10/24 00:18:42;;;;;;;4.55;1.83;;;;;;;12.88;100.00;98544.94;333431;28;13191;-79
2023/10/24 00:18:54;;;;;;;3.75;1.88;;;;;;;12.89;100.00;98549.22;330746;28;4501;-79
2023/10/24 00:19:06;;;;;;;3.13;1.60;;;;;;;12.91;100.00;98549.97;336054;28;4518;-79
2023/10/24 00:19:18;;;;;;;2.38;1.70;;;;;;;12.91;100.00;98549.97;329259;28;4853;-79
2023/10/24 00:19:30;;;;;;;3.28;1.83;;;;;;;12.83;100.00;98552.19;335718;28;4526;-79
2023/10/24 00:19:42;;;;;;;3.10;1.77;;;;;;;12.78;100.00;98553.31;334663;28;12225;-79
2023/10/24 00:19:54;;;;;;;3.28;1.75;;;;;;;12.65;100.00;98552.34;338304;28;4503;-79
2023/10/24 00:20:07;;;;;;;2.95;1.90;;;;;;;12.66;100.00;98550.59;338355;28;4653;-79
2023/10/24 00:20:19;;;;;;;2.90;2.00;;;;;;;12.71;100.00;98538.94;334901;28;19127;-79
2023/10/24 00:20:31;;;;;;;2.35;1.80;;;;;;;12.78;100.00;98542.88;331624;28;4620;-79
2023/10/24 00:20:43;;;;;;;2.00;1.65;;;;;;;12.85;100.00;98537.28;334971;28;12421;-79
2023/10/24 00:20:55;;;;;;;2.15;1.80;;;;;;;12.90;100.00;98540.47;338185;28;6252;-79
2023/10/24 00:21:07;;;;;;;1.90;1.70;;;;;;;12.90;100.00;98537.88;338477;28;4574;-79
2023/10/24 00:21:19;;;;;;;2.05;1.73;;;;;;;12.94;100.00;98536.75;335890;28;19237;-79
2023/10/24 00:21:31;;;;;;;2.90;2.08;;;;;;;12.93;100.00;98537.66;337695;28;4632;-79
2023/10/24 00:21:43;;;;;;;3.33;2.10;;;;;;;12.94;100.00;98539.38;333650;28;18298;-79
2023/10/24 00:21:55;;;;;;;3.65;2.00;;;;;;;12.94;100.00;98534.97;331277;29;5096;-79
2023/10/24 00:22:08;;;;;;;4.13;1.83;;;;;;;12.99;100.00;98532.91;336908;28;4549;-79
2023/10/24 00:22:20;;;;;;;6.10;1.95;;;;;;;13.04;100.00;98532.66;334674;28;17160;-79
2023/10/24 00:22:32;;;;;;;5.95;1.90;;;;;;;13.08;100.00;98536.75;337623;28;4546;-79
2023/10/24 00:22:44;;;;;;;4.15;1.70;;;;;;;13.08;100.00;98536.75;335997;28;19696;-79
2023/10/24 00:22:56;;;;;;;3.15;1.80;;;;;;;13.04;100.00;98540.47;339531;28;4654;-80
2023/10/24 00:23:08;;;;;;;2.20;1.70;;;;;;;12.86;100.00;98544.16;338970;28;19885;-80
2023/10/24 00:23:20;;;;;;;2.05;1.70;;;;;;;12.84;100.00;98543.41;336102;28;17854;-80
2023/10/24 00:23:32;;;;;;;2.25;1.70;;;;;;;12.80;100.00;98548.00;335688;28;4485;-80
2023/10/24 00:23:44;;;;;;;2.28;1.80;;;;;;;12.76;100.00;98542.13;337964;28;18015;-80
2023/10/24 00:23:56;;;;;;;2.67;1.80;;;;;;;12.67;100.00;98547.88;339769;28;4602;-80
2023/10/24 00:24:09;;;;;;;2.70;1.77;;;;;;;12.59;100.00;98544.88;341672;28;4581;-80
2023/10/24 00:24:22;;;;;;;2.97;1.85;;;;;;;12.62;100.00;98538.66;335196;28;18483;-80
2023/10/24 00:24:34;;;;;;;2.50;1.80;;;;;;;12.68;100.00;98541.75;337045;28;12460;-80
2023/10/24 00:24:46;;;;;;;2.80;1.90;;;;;;;12.73;100.00;98542.28;332416;28;18122;-80
2023/10/24 00:24:58;;;;;;;2.78;1.80;;;;;;;12.80;100.00;98542.78;339272;28;4499;-80
2023/10/24 00:25:10;;;;;;;2.92;1.70;;;;;;;12.85;100.00;98545.94;331590;28;18314;-80
2023/10/24 00:25:22;;;;;;;2.88;1.70;;;;;;;12.86;100.00;98547.63;338861;28;4715;-80
2023/10/24 00:25:35;;;;;;;3.30;1.80;;;;;;;12.77;100.00;98549.00;336416;28;8797;-80
2023/10/24 00:25:47;;;;;;;3.45;1.85;;;;;;;12.67;100.00;98544.44;338058;28;4610;-80
2023/10/24 00:25:59;;;;;;;4.47;2.20;;;;;;;12.56;100.00;98539.88;335155;28;5312;-80
2023/10/24 00:26:11;;;;;;;4.40;2.30;;;;;;;12.57;100.00;98536.31;336697;28;4627;-80
2023/10/24 00:26:23;;;;;;;2.75;1.92;;;;;;;12.57;100.00;98536.31;332184;28;4657;-80
2023/10/24 00:26:35;;;;;;;2.40;1.70;;;;;;;12.50;100.00;98530.63;333429;28;5454;-80
2023/10/24 00:26:47;;;;;;;2.88;1.88;;;;;;;12.46;100.00;98528.31;336038;28;5205;-80
2023/10/24 00:26:59;;;;;;;2.83;1.80;;;;;;;12.39;100.00;98522.59;336904;28;4611;-80
2023/10/24 00:27:12;;;;;;;2.83;1.70;;;;;;;12.45;100.00;98521.41;334761;28;18047;-80
2023/10/24 00:27:24;;;;;;;2.58;1.60;;;;;;;12.50;100.00;98527.19;337556;28;5307;-80
2023/10/24 00:27:36;;;;;;;3.70;1.58;;;;;;;12.41;100.00;98522.50;335196;28;17952;-80
2023/10/24 00:27:47;;;;;;;4.82;1.80;;;;;;;12.32;100.00;98527.31;332548;28;4839;-80
2023/10/24 00:27:59;;;;;;;4.60;1.90;;;;;;;12.29;100.00;98532.69;338088;28;5291;-80
2023/10/24 00:28:12;;;;;;;2.92;1.80;;;;;;;12.36;100.00;98528.81;336447;28;17634;-80
2023/10/24 00:28:24;;;;;;;2.78;1.70;;;;;;;12.49;100.00;98533.31;339399;28;4531;-80
2023/10/24 00:28:36;;;;;;;3.20;2.08;;;;;;;12.58;100.00;98538.00;336087;28;18144;-80
2023/10/24 00:28:48;;;;;;;4.18;2.13;;;;;;;12.66;100.00;98535.78;337364;28;4479;-80
2023/10/24 00:29:00;;;;;;;4.57;1.90;;;;;;;12.73;100.00;98531.88;336188;28;7777;-80
2023/10/24 00:29:12;;;;;;;4.38;2.30;;;;;;;12.79;100.00;98539.31;334133;28;13620;-80
2023/10/24 00:29:24;;;;;;;4.18;3.03;;;;;;;12.82;100.00;98537.47;331853;28;5393;-80
2023/10/24 00:29:36;;;;;;;4.57;3.33;;;;;;;12.71;100.00;98532.91;332387;28;12850;-80
2023/10/24 00:29:48;;;;;;;3.40;2.55;;;;;;;12.65;100.00;98538.47;334106;29;4541;-80
2023/10/24 00:30:00;;;;;;;2.67;2.15;;;;;;;12.57;100.00;98525.88;333884;29;4646;-80
2023/10/24 00:30:12;;;;;;;2.13;1.77;;;;;;;12.53;100.00;98534.81;331499;29;18570;-80
2023/10/24 00:30:24;;;;;;;2.30;1.80;;;;;;;12.46;100.00;98530.91;334278;29;4490;-80
2023/10/24 00:30:36;;;;;;;2.10;1.77;;;;;;;12.44;100.00;98535.38;333078;29;7933;-80
2023/10/24 00:30:48;;;;;;;2.22;1.80;;;;;;;12.45;100.00;98539.63;332592;29;19338;-80
2023/10/24 00:31:00;;;;;;;6.60;2.00;;;;;;;12.39;100.00;98533.00;335785;29;4550;-80
2023/10/24 00:31:12;;;;;;;6.80;1.75;;;;;;;12.41;100.00;98535.53;333580;28;19709;-80
2023/10/24 00:31:24;;;;;;;4.90;1.88;;;;;;;12.47;100.00;98537.78;336199;29;4685;-80
2023/10/24 00:31:37;;;;;;;4.22;3.00;;;;;;;12.50;100.00;98535.00;332574;28;17124;-80
2023/10/24 00:31:49;;;;;;;6.07;4.35;;;;;;;12.54;100.00;98534.72;338164;28;4595;-80
2023/10/24 00:32:01;;;;;;;7.55;5.97;;;;;;;12.58;100.00;98533.63;338315;28;14055;-79
2023/10/24 00:32:14;;;;;;;8.80;7.15;;;;;;;12.54;100.00;98536.50;331887;28;18082;-79
2023/10/24 00:32:26;;;;;;;10.82;8.45;;;;;;;12.57;100.00;98536.31;338773;28;4774;-79
2023/10/24 00:32:38;;;;;;;11.15;8.70;;;;;;;12.57;100.00;98536.31;336015;28;5536;-80
2023/10/24 00:32:50;;;;;;;10.40;8.23;;;;;;;12.58;100.00;98538.00;339655;28;4606;-80
2023/10/24 00:33:03;;;;;;;10.27;7.75;;;;;;;12.64;100.00;98534.22;336469;28;14914;-80
2023/10/24 00:33:15;;;;;;;10.23;7.50;;;;;;;12.67;100.00;98532.22;339026;28;5381;-80
2023/10/24 00:33:27;;;;;;;11.82;7.72;;;;;;;12.70;100.00;98532.06;335676;28;17018;-80
2023/10/24 00:33:39;;;;;;;10.93;7.28;;;;;;;12.64;100.00;98527.22;332386;28;4822;-80
2023/10/24 00:33:51;;;;;;;9.82;6.45;;;;;;;12.61;100.00;98534.38;337486;29;5089;-80
2023/10/24 00:34:03;;;;;;;7.65;5.68;;;;;;;12.62;100.00;98536.06;334418;29;16569;-80
2023/10/24 00:34:16;;;;;;;6.85;5.22;;;;;;;12.54;100.00;98531.28;335726;28;4511;-80
2023/10/24 00:34:28;;;;;;;6.22;4.60;;;;;;;12.51;100.00;98534.91;332305;29;18706;-80
2023/10/24 00:34:40;;;;;;;5.53;4.20;;;;;;;12.51;100.00;98534.06;335471;29;4525;-80
2023/10/24 00:34:53;;;;;;;5.22;3.83;;;;;;;12.49;100.00;98533.31;332470;29;19782;-80
2023/10/24 00:35:05;;;;;;;4.70;3.47;;;;;;;12.44;100.00;98535.38;335540;29;4614;-80
2023/10/24 00:35:17;;;;;;;3.97;2.75;;;;;;;12.47;100.00;98528.19;337243;28;4522;-80
2023/10/24 00:35:29;;;;;;;3.55;2.45;;;;;;;12.38;100.00;98534.78;334844;28;18187;-80
2023/10/24 00:35:41;;;;;;;3.65;2.38;;;;;;;12.41;100.00;98530.31;337120;28;4569;-80
2023/10/24 00:35:53;;;;;;;3.13;2.03;;;;;;;12.50;100.00;98535.84;333866;28;17405;-80
2023/10/24 00:36:05;;;;;;;3.40;1.85;;;;;;;12.53;100.00;98529.59;337393;28;4472;-80
2023/10/24 00:36:17;;;;;;;2.67;1.73;;;;;;;12.49;100.00;98538.53;337150;29;4487;-80
2023/10/24 00:36:29;;;;;;;2.10;1.60;;;;;;;12.49;100.00;98534.16;332312;29;17277;-80
2023/10/24 00:36:43;;;;;;;2.03;1.70;;;;;;;12.61;100.00;98537.81;333606;29;5685;-80
2023/10/24 00:36:55;;;;;;;2.22;1.65;;;;;;;12.68;100.00;98539.13;333224;29;19365;-80
2023/10/24 00:37:07;;;;;;;2.17;1.67;;;;;;;12.77;100.00;98537.75;336436;28;4581;-80
2023/10/24 00:37:19;;;;;;;2.30;1.60;;;;;;;12.85;100.00;98532.06;335074;28;18256;-80
2023/10/24 00:37:31;;;;;;;3.53;2.10;;;;;;;12.92;100.00;98533.41;337825;28;5107;-80
2023/10/24 00:37:43;;;;;;;5.38;2.75;;;;;;;12.82;100.00;98530.50;333685;28;13114;-80
2023/10/24 00:37:55;;;;;;;5.47;2.95;;;;;;;12.78;100.00;98534.22;335140;28;4558;-80
2023/10/24 00:38:07;;;;;;;5.10;2.72;;;;;;;12.75;100.00;98530.00;335307;29;4575;-80
2023/10/24 00:38:19;;;;;;;3.85;2.40;;;;;;;12.74;100.00;98528.34;332530;28;18735;-80
2023/10/24 00:38:31;;;;;;;3.30;2.30;;;;;;;12.77;100.00;98528.16;335057;28;5310;-80
2023/10/24 00:38:43;;;;;;;3.45;2.40;;;;;;;12.82;100.00;98529.63;332377;28;17004;-80
2023/10/24 00:38:55;;;;;;;2.83;2.10;;;;;;;12.86;100.00;98528.53;336376;28;4494;-80
2023/10/24 00:39:08;;;;;;;2.33;1.77;;;;;;;12.86;100.00;98528.53;335636;28;5002;-80
2023/10/24 00:39:20;;;;;;;2.65;1.73;;;;;;;12.89;100.00;98530.97;332096;29;18117;-80
2023/10/24 00:39:32;;;;;;;3.42;2.00;;;;;;;12.85;100.00;98534.69;331598;28;4810;-80
2023/10/24 00:39:44;;;;;;;3.25;2.05;;;;;;;12.86;100.00;98537.22;334327;28;11101;-80
2023/10/24 00:39:56;;;;;;;3.60;2.33;;;;;;;12.89;100.00;98546.63;338215;28;4549;-80
2023/10/24 00:40:09;;;;;;;3.35;2.50;;;;;;;12.92;100.00;98547.28;340310;28;5298;-80
2023/10/24 00:40:21;;;;;;;3.53;2.58;;;;;;;12.96;100.00;98545.31;336765;28;18632;-80
2023/10/24 00:40:33;;;;;;;3.50;2.45;;;;;;;12.99;100.00;98543.34;340276;28;5018;-80
2023/10/24 00:40:46;;;;;;;2.90;2.08;;;;;;;13.01;100.00;98540.66;331265;28;18241;-80
2023/10/24 00:40:58;;;;;;;2.58;2.05;;;;;;;12.97;100.00;98539.16;339038;28;4597;-80
2023/10/24 00:41:10;;;;;;;2.72;2.22;;;;;;;12.98;100.00;98535.63;331954;28;17812;-80
2023/10/24 00:41:22;;;;;;;2.83;2.28;;;;;;;13.00;100.00;98528.56;338996;28;4557;-80
2023/10/24 00:41:34;;;;;;;2.90;2.17;;;;;;;13.00;100.00;98531.16;337915;28;4984;-80
2023/10/24 00:41:46;;;;;;;2.70;2.05;;;;;;;13.03;100.00;98517.91;337290;28;18097;-80
2023/10/24 00:41:58;;;;;;;2.20;1.83;;;;;;;13.05;100.00;98521.28;337261;28;4568;-80
2023/10/24 00:42:10;;;;;;;2.38;1.98;;;;;;;13.08;100.00;98515.88;334743;28;18099;-80
2023/10/24 00:42:22;;;;;;;3.08;2.00;;;;;;;13.10;100.00;98521.00;331791;28;4578;-80
2023/10/24 00:42:34;;;;;;;3.38;2.15;;;;;;;13.10;100.00;98514.03;338082;28;4488;-80
2023/10/24 00:42:46;;;;;;;4.03;2.22;;;;;;;13.11;100.00;98520.91;330350;28;18079;-80
2023/10/24 00:43:03;;;;;;;3.67;2.30;;;;;;;13.12;100.00;98522.59;337704;28;4521;-80
2023/10/24 00:43:15;;;;;;;2.60;2.17;;;;;;;13.11;100.00;98520.06;336601;28;17504;-80
2023/10/24 00:43:27;;;;;;;2.47;1.90;;;;;;;13.06;100.00;98522.97;334461;28;17288;-80
2023/10/24 00:43:39;;;;;;;2.60;1.85;;;;;;;13.03;100.00;98517.09;336041;28;5518;-80
2023/10/24 00:43:51;;;;;;;2.80;2.00;;;;;;;12.91;100.00;98518.66;334285;28;14151;-80
2023/10/24 00:44:03;;;;;;;3.25;2.20;;;;;;;12.81;100.00;98522.75;338024;28;4534;-80
2023/10/24 00:44:15;;;;;;;5.00;2.50;;;;;;;12.83;100.00;98520.91;334222;28;12337;-80
2023/10/24 00:44:27;;;;;;;4.75;2.50;;;;;;;12.83;100.00;98520.91;336979;28;4512;-80
2023/10/24 00:44:40;;;;;;;4.20;2.38;;;;;;;12.82;100.00;98520.06;337516;28;4692;-80
2023/10/24 00:44:52;;;;;;;3.60;2.30;;;;;;;12.74;100.00;98517.09;333725;28;16729;-80
2023/10/24 00:45:06;;;;;;;3.78;2.40;;;;;;;12.67;100.00;98516.59;338342;28;5237;-80
2023/10/24 00:45:18;;;;;;;2.72;2.17;;;;;;;12.71;100.00;98518.09;334618;28;18567;-80
2023/10/24 00:45:32;;;;;;;2.67;2.10;;;;;;;12.78;100.00;98519.41;339374;28;5275;-80
2023/10/24 00:45:44;;;;;;;2.63;2.00;;;;;;;12.84;100.00;98519.97;336961;28;17771;-80
2023/10/24 00:45:56;;;;;;;2.65;2.08;;;;;;;12.83;100.00;98520.91;336389;28;5362;-80
2023/10/24 00:46:09;;;;;;;2.53;2.15;;;;;;;12.83;100.00;98520.91;339129;28;4587;-80
2023/10/24 00:46:22;;;;;;;2.38;2.10;;;;;;;12.82;100.00;98529.63;336486;28;16814;-80
2023/10/24 00:46:37;;;;;;;2.70;2.30;;;;;;;12.81;100.00;98520.16;339530;28;4674;-80
2023/10/24 00:46:49;;;;;;;3.10;2.40;;;;;;;12.83;100.00;98531.34;334358;28;16489;-80
2023/10/24 00:47:01;;;;;;;2.88;2.30;;;;;;;12.88;100.00;98534.50;334314;28;16670;-80
2023/10/24 00:47:14;;;;;;;4.60;2.33;;;;;;;12.90;100.00;98527.44;336688;28;5301;-80
2023/10/24 00:47:26;;;;;;;4.78;2.30;;;;;;;12.86;100.00;98525.91;333873;28;17801;-80
2023/10/24 00:47:39;;;;;;;4.35;2.40;;;;;;;12.87;100.00;98530.22;336258;28;4673;-80
2023/10/24 00:47:51;;;;;;;2.88;2.50;;;;;;;12.88;100.00;98527.53;334922;28;11007;-80
2023/10/24 00:48:05;;;;;;;2.90;2.40;;;;;;;12.90;100.00;98537.88;337633;28;4659;-80
2023/10/24 00:48:17;;;;;;;3.58;2.58;;;;;;;12.89;100.00;98531.78;330961;28;13648;-80
2023/10/24 00:48:30;;;;;;;3.70;2.60;;;;;;;12.91;100.00;98529.09;337122;28;4603;-80
2023/10/24 00:48:42;;;;;;;4.05;2.60;;;;;;;12.91;100.00;98534.31;335501;28;4659;-80
2023/10/24 00:48:54;;;;;;;4.40;2.40;;;;;;;12.81;100.00;98533.19;336904;28;4518;-80
2023/10/24 00:49:08;;;;;;;4.85;2.50;;;;;;;12.76;100.00;98536.91;338624;28;4572;-80
2023/10/24 00:49:20;;;;;;;4.03;2.53;;;;;;;12.77;100.00;98538.56;333324;28;19866;-80
2023/10/24 00:49:32;;;;;;;3.67;2.35;;;;;;;12.86;100.00;98538.97;331461;28;16472;-80
2023/10/24 00:49:45;;;;;;;3.15;2.17;;;;;;;12.92;100.00;98530.78;331849;28;18555;-80
2023/10/24 00:49:57;;;;;;;2.65;1.90;;;;;;;12.88;100.00;98545.78;331294;28;14303;-80
2023/10/24 00:50:09;;;;;;;2.88;2.17;;;;;;;12.86;100.00;98546.78;332773;29;4598;-80
2023/10/24 00:50:21;;;;;;;3.45;2.58;;;;;;;12.85;100.00;98540.72;332960;29;4562;-80
2023/10/24 00:50:34;;;;;;;3.38;2.38;;;;;;;12.80;100.00;98537.56;331449;29;17953;-80
2023/10/24 00:50:46;;;;;;;3.83;2.67;;;;;;;12.79;100.00;98546.31;335076;28;4505;-80
2023/10/24 00:50:58;;;;;;;4.18;2.65;;;;;;;12.82;100.00;98537.47;332803;28;18355;-80
2023/10/24 00:51:11;;;;;;;4.05;2.72;;;;;;;12.86;100.00;98541.56;331365;28;5451;-80
2023/10/24 00:51:23;;;;;;;3.90;2.80;;;;;;;12.87;100.00;98538.88;336041;28;13491;-80
2023/10/24 00:51:36;;;;;;;3.65;2.55;;;;;;;12.89;100.00;98546.63;335702;28;17565;-80
2023/10/24 00:51:48;;;;;;;4.03;2.28;;;;;;;12.90;100.00;98543.91;335623;28;4552;-80
2023/10/24 00:52:00;;;;;;;3.55;2.20;;;;;;;12.91;100.00;98542.13;337072;28;4504;-80
2023/10/24 00:52:12;;;;;;;3.42;2.13;;;;;;;12.94;100.00;98541.97;336788;28;4736;-80
2023/10/24 00:52:25;;;;;;;3.25;2.13;;;;;;;12.93;100.00;98543.72;334071;28;18068;-80
2023/10/24 00:52:37;;;;;;;3.15;2.13;;;;;;;12.95;100.00;98543.63;332577;28;4887;-80
2023/10/24 00:52:50;;;;;;;3.13;2.08;;;;;;;12.96;100.00;98547.94;333845;28;19148;-80
2023/10/24 00:53:02;;;;;;;3.35;2.20;;;;;;;12.95;100.00;98548.84;338058;28;4642;-80
2023/10/24 00:53:14;;;;;;;3.33;2.10;;;;;;;12.88;100.00;98553.59;334056;28;18283;-80
2023/10/24 00:53:27;;;;;;;3.38;1.92;;;;;;;12.79;100.00;98552.34;335551;28;4760;-80
2023/10/24 00:53:39;;;;;;;3.00;2.00;;;;;;;12.71;100.00;98559.81;333332;28;19923;-80
2023/10/24 00:53:57;;;;;;;2.47;2.10;;;;;;;12.63;100.00;98562.03;333820;28;18701;-80
2023/10/24 00:54:10;;;;;;;2.47;2.17;;;;;;;12.52;100.00;98560.06;331203;28;15932;-80
2023/10/24 00:54:23;;;;;;;2.63;2.00;;;;;;;12.45;100.00;98563.09;338159;28;4724;-80
2023/10/24 00:54:35;;;;;;;2.15;1.77;;;;;;;12.43;100.00;98564.94;334896;28;19128;-80
2023/10/24 00:54:48;;;;;;;3.10;2.00;;;;;;;12.45;100.00;98568.31;335281;28;4565;-80
2023/10/24 00:55:00;;;;;;;3.75;2.28;;;;;;;12.47;100.00;98566.44;334573;28;17898;-80
2023/10/24 00:55:13;;;;;;;4.50;2.40;;;;;;;12.51;100.00;98570.56;337670;28;4456;-80
2023/10/24 00:55:25;;;;;;;3.33;1.95;;;;;;;12.47;100.00;98572.50;330402;28;18336;-79
2023/10/24 00:55:39;;;;;;;2.60;1.90;;;;;;;12.42;100.00;98563.28;336057;28;4514;-80
2023/10/24 00:55:51;;;;;;;2.53;1.80;;;;;;;12.48;100.00;98568.97;335355;28;15429;-80
2023/10/24 00:56:05;;;;;;;2.20;1.70;;;;;;;12.54;100.00;98565.19;338798;28;4496;-80
2023/10/24 00:56:17;;;;;;;2.38;1.75;;;;;;;12.56;100.00;98560.72;336203;28;17828;-80
2023/10/24 00:56:31;;;;;;;2.63;1.85;;;;;;;12.58;100.00;98564.06;335915;28;17602;-80
2023/10/24 00:56:46;;;;;;;2.90;1.95;;;;;;;12.64;100.00;98561.09;339682;28;4513;-80
2023/10/24 00:56:58;;;;;;;4.78;1.98;;;;;;;12.68;100.00;98562.59;336041;28;19071;-80
2023/10/24 00:57:12;;;;;;;4.63;2.00;;;;;;;12.71;100.00;98558.97;334381;28;4715;-80
2023/10/24 00:57:25;;;;;;;3.75;2.03;;;;;;;12.69;100.00;98566.88;340137;28;4594;-80
2023/10/24 00:57:37;;;;;;;3.28;2.05;;;;;;;12.60;100.00;98570.03;336688;28;19271;-80
2023/10/24 00:57:50;;;;;;;3.15;2.00;;;;;;;12.48;100.00;98578.56;339612;28;4517;-80
2023/10/24 00:58:02;;;;;;;2.53;1.80;;;;;;;12.46;100.00;98570.84;336120;28;17987;-80
2023/10/24 00:58:14;;;;;;;2.85;1.98;;;;;;;12.37;100.00;98571.34;339347;28;5958;-80